sensor_id;sensor_type;location;lat;lon;timestamp;pressure;altitude;pressure_sealevel;temperature;humidity
65716;BME280;63484;52.054;8.518;2023-02-15T00:02:50;102058.47;;;0.57;98.83
65716;BME280;63484;52.054;8.518;2023-02-15T00:07:52;102052.44;;;0.58;99.21
65716;BME280;63484;52.054;8.518;2023-02-15T00:12:54;102049.84;;;0.57;99.42
65716;BME280;63484;52.054;8.518;2023-02-15T00:17:56;102049.88;;;0.69;100.00
65716;BME280;63484;52.054;8.518;2023-02-15T00:22:58;102048.16;;;0.71;100.00
65716;BME280;63484;52.054;8.518;2023-02-15T00:28:01;102046.41;;;0.70;100.00
65716;BME280;63484;52.054;8.518;2023-02-15T00:33:03;102035.19;;;0.63;100.00
65716;BME280;63484;52.054;8.518;2023-02-15T00:38:04;102037.75;;;0.59;99.78
65716;BME280;63484;52.054;8.518;2023-02-15T00:43:07;102035.16;;;0.54;100.00
65716;BME280;63484;52.054;8.518;2023-02-15T00:48:08;102037.75;;;0.50;100.00
65716;BME280;63484;52.054;8.518;2023-02-15T00:53:10;102033.41;;;0.43;99.94
65716;BME280;63484;52.054;8.518;2023-02-15T00:58:13;102027.38;;;0.38;100.00
65716;BME280;63484;52.054;8.518;2023-02-15T01:03:16;102039.41;;;0.27;99.48
65716;BME280;63484;52.054;8.518;2023-02-15T01:08:17;102029.88;;;0.18;99.35
65716;BME280;63484;52.054;8.518;2023-02-15T01:13:20;102023.88;;;0.15;99.92
65716;BME280;63484;52.054;8.518;2023-02-15T01:18:22;102019.53;;;0.12;100.00
65716;BME280;63484;52.054;8.518;2023-02-15T01:23:23;102010.06;;;0.13;99.81
65716;BME280;63484;52.054;8.518;2023-02-15T01:28:26;102011.78;;;0.11;99.98
65716;BME280;63484;52.054;8.518;2023-02-15T01:33:29;102003.16;;;0.10;99.72
65716;BME280;63484;52.054;8.518;2023-02-15T01:38:30;102011.78;;;0.11;99.59
65716;BME280;63484;52.054;8.518;2023-02-15T01:43:40;102005.75;;;0.13;100.00
65716;BME280;63484;52.054;8.518;2023-02-15T01:48:45;102003.16;;;0.12;100.00
65716;BME280;63484;52.054;8.518;2023-02-15T01:53:49;101997.97;;;0.13;100.00
65716;BME280;63484;52.054;8.518;2023-02-15T01:58:56;101992.81;;;0.12;100.00
65716;BME280;63484;52.054;8.518;2023-02-15T02:04:05;101995.41;;;0.13;100.00
65716;BME280;63484;52.054;8.518;2023-02-15T02:09:10;101993.69;;;0.12;100.00
65716;BME280;63484;52.054;8.518;2023-02-15T02:14:14;101983.34;;;0.11;100.00
65716;BME280;63484;52.054;8.518;2023-02-15T02:19:44;101978.16;;;0.08;100.00
65716;BME280;63484;52.054;8.518;2023-02-15T02:35:57;101972.13;;;0.03;100.00
65716;BME280;63484;52.054;8.518;2023-02-15T02:41:08;101960.06;;;0.02;100.00
65716;BME280;63484;52.054;8.518;2023-02-15T02:46:20;101965.25;;;0.05;100.00
65716;BME280;63484;52.054;8.518;2023-02-15T02:51:24;101956.63;;;0.01;100.00
65716;BME280;63484;52.054;8.518;2023-02-15T02:56:29;101948.00;;;0.07;100.00
65716;BME280;63484;52.054;8.518;2023-02-15T03:01:33;101942.00;;;0.09;100.00
65716;BME280;63484;52.054;8.518;2023-02-15T03:06:42;101934.22;;;0.14;100.00
65716;BME280;63484;52.054;8.518;2023-02-15T03:11:48;101940.28;;;0.22;100.00
65716;BME280;63484;52.054;8.518;2023-02-15T03:16:51;101937.69;;;0.23;100.00
65716;BME280;63484;52.054;8.518;2023-02-15T03:21:56;101942.00;;;0.15;100.00
65716;BME280;63484;52.054;8.518;2023-02-15T03:27:07;101937.66;;;0.07;100.00
65716;BME280;63484;52.054;8.518;2023-02-15T03:32:11;101933.34;;;0.10;100.00
65716;BME280;63484;52.054;8.518;2023-02-15T03:37:22;101930.81;;;0.21;100.00
65716;BME280;63484;52.054;8.518;2023-02-15T03:42:30;101935.97;;;0.18;100.00
65716;BME280;63484;52.054;8.518;2023-02-15T03:47:36;101926.47;;;0.18;100.00
65716;BME280;63484;52.054;8.518;2023-02-15T03:52:39;101923.03;;;0.06;100.00
65716;BME280;63484;52.054;8.518;2023-02-15T03:57:41;101917.00;;;0.10;100.00
65716;BME280;63484;52.054;8.518;2023-02-15T04:03:10;101925.59;;;0.03;100.00
65716;BME280;63484;52.054;8.518;2023-02-15T04:08:14;101920.44;;;0.09;100.00
65716;BME280;63484;52.054;8.518;2023-02-15T04:13:16;101918.72;;;0.11;100.00
65716;BME280;63484;52.054;8.518;2023-02-15T04:18:17;101916.97;;;0.07;100.00
65716;BME280;63484;52.054;8.518;2023-02-15T04:23:20;101910.97;;;0.11;100.00
65716;BME280;63484;52.054;8.518;2023-02-15T04:28:39;101910.97;;;0.11;100.00
65716;BME280;63484;52.054;8.518;2023-02-15T04:33:41;101910.97;;;0.02;100.00
65716;BME280;63484;52.054;8.518;2023-02-15T04:38:45;101902.34;;;-0.01;100.00
65716;BME280;63484;52.054;8.518;2023-02-15T04:43:46;101896.31;;;0.00;100.00
65716;BME280;63484;52.054;8.518;2023-02-15T04:48:48;101892.84;;;-0.06;100.00
65716;BME280;63484;52.054;8.518;2023-02-15T04:53:51;101880.78;;;-0.12;100.00
65716;BME280;63484;52.054;8.518;2023-02-15T04:58:53;101887.66;;;-0.08;100.00
65716;BME280;63484;52.054;8.518;2023-02-15T05:03:55;101884.25;;;-0.07;100.00
65716;BME280;63484;52.054;8.518;2023-02-15T05:08:57;101889.38;;;-0.14;100.00
65716;BME280;63484;52.054;8.518;2023-02-15T05:13:59;101880.78;;;-0.12;100.00
65716;BME280;63484;52.054;8.518;2023-02-15T05:19:00;101885.09;;;-0.14;100.00
65716;BME280;63484;52.054;8.518;2023-02-15T05:24:04;101884.22;;;-0.10;100.00
65716;BME280;63484;52.054;8.518;2023-02-15T05:29:26;101868.75;;;-0.04;100.00
65716;BME280;63484;52.054;8.518;2023-02-15T05:34:28;101877.31;;;-0.14;100.00
65716;BME280;63484;52.054;8.518;2023-02-15T05:39:30;101872.16;;;-0.20;100.00
65716;BME280;63484;52.054;8.518;2023-02-15T05:44:32;101878.16;;;-0.22;100.00
65716;BME280;63484;52.054;8.518;2023-02-15T05:49:34;101879.00;;;-0.31;100.00
65716;BME280;63484;52.054;8.518;2023-02-15T05:54:37;101877.31;;;-0.18;100.00
65716;BME280;63484;52.054;8.518;2023-02-15T05:59:38;101860.94;;;-0.22;100.00
65716;BME280;63484;52.054;8.518;2023-02-15T06:04:40;101864.38;;;-0.29;100.00
65716;BME280;63484;52.054;8.518;2023-02-15T06:09:43;101873.88;;;-0.20;100.00
65716;BME280;63484;52.054;8.518;2023-02-15T06:14:47;101869.56;;;-0.09;100.00
65716;BME280;63484;52.054;8.518;2023-02-15T06:19:48;101864.44;;;0.00;100.00
65716;BME280;63484;52.054;8.518;2023-02-15T06:24:51;101870.44;;;0.03;100.00
65716;BME280;63484;52.054;8.518;2023-02-15T06:29:52;101872.19;;;0.11;100.00
65716;BME280;63484;52.054;8.518;2023-02-15T06:34:54;101879.94;;;0.17;100.00
65716;BME280;63484;52.054;8.518;2023-02-15T06:39:57;101867.91;;;0.20;100.00
65716;BME280;63484;52.054;8.518;2023-02-15T06:44:58;101860.16;;;0.34;100.00
65716;BME280;63484;52.054;8.518;2023-02-15T06:50:00;101861.88;;;0.32;100.00
65716;BME280;63484;52.054;8.518;2023-02-15T06:55:03;101863.63;;;0.37;100.00
65716;BME280;63484;52.054;8.518;2023-02-15T07:00:06;101860.16;;;0.37;100.00
65716;BME280;63484;52.054;8.518;2023-02-15T07:05:08;101861.00;;;0.43;100.00
65716;BME280;63484;52.054;8.518;2023-02-15T07:10:11;101870.50;;;0.53;100.00
65716;BME280;63484;52.054;8.518;2023-02-15T07:15:14;101870.47;;;0.64;100.00
65716;BME280;63484;52.054;8.518;2023-02-15T07:20:19;101861.84;;;0.77;99.59
65716;BME280;63484;52.054;8.518;2023-02-15T07:25:22;101870.44;;;0.97;98.90
65716;BME280;63484;52.054;8.518;2023-02-15T07:30:24;101865.22;;;1.06;97.05
65716;BME280;63484;52.054;8.518;2023-02-15T07:35:26;101866.03;;;1.29;96.59
65716;BME280;63484;52.054;8.518;2023-02-15T07:40:28;101855.53;;;1.56;94.40
65716;BME280;63484;52.054;8.518;2023-02-15T07:45:30;101852.78;;;1.86;92.05
65716;BME280;63484;52.054;8.518;2023-02-15T07:50:31;101847.34;;;2.22;90.34
65716;BME280;63484;52.054;8.518;2023-02-15T07:55:35;101836.94;;;3.13;85.47
65716;BME280;63484;52.054;8.518;2023-02-15T08:00:36;101829.34;;;4.22;79.47
65716;BME280;63484;52.054;8.518;2023-02-15T08:05:56;101837.44;;;5.03;75.50
65716;BME280;63484;52.054;8.518;2023-02-15T08:11:01;101817.63;;;5.77;72.25
65716;BME280;63484;52.054;8.518;2023-02-15T08:16:25;101817.69;;;6.14;69.81
65716;BME280;63484;52.054;8.518;2023-02-15T08:21:28;101802.56;;;6.60;68.33
65716;BME280;63484;52.054;8.518;2023-02-15T08:26:32;101793.97;;;6.56;67.18
65716;BME280;63484;52.054;8.518;2023-02-15T08:31:34;101798.97;;;7.27;65.28
65716;BME280;63484;52.054;8.518;2023-02-15T08:36:37;101791.84;;;8.42;61.61
65716;BME280;63484;52.054;8.518;2023-02-15T08:41:42;101790.75;;;8.74;59.37
65716;BME280;63484;52.054;8.518;2023-02-15T08:46:45;101786.56;;;6.72;66.06
65716;BME280;63484;52.054;8.518;2023-02-15T08:51:47;101782.53;;;5.14;72.34
65716;BME280;63484;52.054;8.518;2023-02-15T08:56:50;101792.25;;;4.60;75.90
65716;BME280;63484;52.054;8.518;2023-02-15T09:01:52;101782.31;;;4.33;77.60
65716;BME280;63484;52.054;8.518;2023-02-15T09:06:54;101777.09;;;4.33;77.63
65716;BME280;63484;52.054;8.518;2023-02-15T09:11:57;101789.19;;;4.37;78.36
65716;BME280;63484;52.054;8.518;2023-02-15T09:16:59;101775.19;;;4.44;78.11
65716;BME280;63484;52.054;8.518;2023-02-15T09:22:01;101766.72;;;4.32;78.11
65716;BME280;63484;52.054;8.518;2023-02-15T09:27:04;101773.63;;;4.34;78.75
65716;BME280;63484;52.054;8.518;2023-02-15T09:32:05;101772.63;;;4.41;78.89
65716;BME280;63484;52.054;8.518;2023-02-15T09:37:06;101767.28;;;4.50;78.36
65716;BME280;63484;52.054;8.518;2023-02-15T09:42:25;101771.38;;;4.63;78.05
65716;BME280;63484;52.054;8.518;2023-02-15T09:47:46;101771.25;;;4.69;77.55
65716;BME280;63484;52.054;8.518;2023-02-15T09:53:00;101758.63;;;4.92;77.86
65716;BME280;63484;52.054;8.518;2023-02-15T09:58:16;101752.31;;;5.04;76.63
65716;BME280;63484;52.054;8.518;2023-02-15T10:03:33;101756.44;;;5.15;76.59
65716;BME280;63484;52.054;8.518;2023-02-15T10:08:51;101757.81;;;5.31;75.87
65716;BME280;63484;52.054;8.518;2023-02-15T10:14:06;101752.25;;;5.46;75.29
65716;BME280;63484;52.054;8.518;2023-02-15T10:19:20;101749.16;;;5.67;75.50
65716;BME280;63484;52.054;8.518;2023-02-15T10:24:39;101750.53;;;5.85;75.41
65716;BME280;63484;52.054;8.518;2023-02-15T10:29:52;101749.44;;;5.94;74.22
65716;BME280;63484;52.054;8.518;2023-02-15T10:35:01;101743.19;;;6.01;73.26
65716;BME280;63484;52.054;8.518;2023-02-15T10:40:08;101750.00;;;6.05;73.83
65716;BME280;63484;52.054;8.518;2023-02-15T10:45:22;101738.06;;;6.30;73.17
65716;BME280;63484;52.054;8.518;2023-02-15T10:50:36;101728.44;;;6.64;71.99
65716;BME280;63484;52.054;8.518;2023-02-15T10:55:50;101717.91;;;6.67;71.54
65716;BME280;63484;52.054;8.518;2023-02-15T11:01:00;101719.09;;;6.86;71.29
65716;BME280;63484;52.054;8.518;2023-02-15T11:06:06;101717.13;;;6.94;71.60
65716;BME280;63484;52.054;8.518;2023-02-15T11:11:12;101714.69;;;7.17;70.56
65716;BME280;63484;52.054;8.518;2023-02-15T11:16:21;101709.78;;;7.36;69.90
65716;BME280;63484;52.054;8.518;2023-02-15T11:39:35;101697.56;;;8.14;68.53
65716;BME280;63484;52.054;8.518;2023-02-15T11:44:40;101696.00;;;8.35;67.77
65716;BME280;63484;52.054;8.518;2023-02-15T11:49:45;101697.91;;;8.55;67.25
65716;BME280;63484;52.054;8.518;2023-02-15T11:54:50;101686.03;;;8.69;66.26
65716;BME280;63484;52.054;8.518;2023-02-15T11:59:56;101675.88;;;9.06;65.22
65716;BME280;63484;52.054;8.518;2023-02-15T12:05:12;101670.28;;;9.15;65.59
65716;BME280;63484;52.054;8.518;2023-02-15T12:10:20;101674.22;;;9.27;65.09
65716;BME280;63484;52.054;8.518;2023-02-15T12:15:30;101662.53;;;9.34;64.48
65716;BME280;63484;52.054;8.518;2023-02-15T12:20:33;101658.09;;;9.36;64.68
65716;BME280;63484;52.054;8.518;2023-02-15T12:25:40;101651.97;;;9.57;63.42
65716;BME280;63484;52.054;8.518;2023-02-15T12:30:42;101648.47;;;9.78;63.55
65716;BME280;63484;52.054;8.518;2023-02-15T12:35:44;101647.16;;;9.88;62.88
65716;BME280;63484;52.054;8.518;2023-02-15T12:40:59;101626.34;;;10.04;62.46
65716;BME280;63484;52.054;8.518;2023-02-15T12:46:19;101625.94;;;10.14;61.83
65716;BME280;63484;52.054;8.518;2023-02-15T12:51:22;101612.00;;;10.12;62.42
65716;BME280;63484;52.054;8.518;2023-02-15T12:56:27;101604.25;;;10.29;61.51
65716;BME280;63484;52.054;8.518;2023-02-15T13:01:32;101606.66;;;10.52;61.33
65716;BME280;63484;52.054;8.518;2023-02-15T13:06:35;101597.66;;;10.76;60.35
65716;BME280;63484;52.054;8.518;2023-02-15T13:11:41;101590.28;;;10.84;60.43
65716;BME280;63484;52.054;8.518;2023-02-15T13:16:45;101596.53;;;11.00;60.18
65716;BME280;63484;52.054;8.518;2023-02-15T13:21:50;101591.44;;;11.14;60.01
65716;BME280;63484;52.054;8.518;2023-02-15T13:26:56;101588.38;;;11.23;59.94
65716;BME280;63484;52.054;8.518;2023-02-15T13:32:04;101580.03;;;11.33;60.29
65716;BME280;63484;52.054;8.518;2023-02-15T13:37:12;101583.84;;;11.44;58.83
65716;BME280;63484;52.054;8.518;2023-02-15T13:42:21;101567.66;;;11.52;59.55
65716;BME280;63484;52.054;8.518;2023-02-15T13:47:29;101557.28;;;11.49;58.71
65716;BME280;63484;52.054;8.518;2023-02-15T13:52:38;101552.78;;;11.51;58.87
65716;BME280;63484;52.054;8.518;2023-02-15T13:57:55;101543.47;;;11.61;59.04
65716;BME280;63484;52.054;8.518;2023-02-15T14:03:25;101541.69;;;11.61;58.71
65716;BME280;63484;52.054;8.518;2023-02-15T14:08:46;101543.22;;;11.67;58.70
65716;BME280;63484;52.054;8.518;2023-02-15T14:19:35;101525.41;;;11.72;58.89
65716;BME280;63484;52.054;8.518;2023-02-15T14:24:44;101524.75;;;11.84;59.15
65716;BME280;63484;52.054;8.518;2023-02-15T14:29:52;101521.41;;;11.80;59.69
65716;BME280;63484;52.054;8.518;2023-02-15T14:34:56;101519.97;;;11.75;59.91
65716;BME280;63484;52.054;8.518;2023-02-15T14:40:02;101521.50;;;11.62;60.52
65716;BME280;63484;52.054;8.518;2023-02-15T14:45:28;101522.94;;;11.69;60.11
65716;BME280;63484;52.054;8.518;2023-02-15T14:50:40;101521.34;;;11.65;60.73
65716;BME280;63484;52.054;8.518;2023-02-15T14:55:42;101519.03;;;11.59;60.21
65716;BME280;63484;52.054;8.518;2023-02-15T15:00:45;101512.09;;;11.56;60.57
65716;BME280;63484;52.054;8.518;2023-02-15T15:05:49;101515.75;;;11.54;60.66
65716;BME280;63484;52.054;8.518;2023-02-15T15:10:51;101512.34;;;11.52;60.69
65716;BME280;63484;52.054;8.518;2023-02-15T15:15:54;101502.41;;;11.40;62.16
65716;BME280;63484;52.054;8.518;2023-02-15T15:20:55;101507.38;;;11.29;62.88
65716;BME280;63484;52.054;8.518;2023-02-15T15:25:59;101512.34;;;11.17;63.76
65716;BME280;63484;52.054;8.518;2023-02-15T15:31:25;101499.66;;;11.08;63.60
65716;BME280;63484;52.054;8.518;2023-02-15T15:37:00;101495.53;;;11.03;64.31
65716;BME280;63484;52.054;8.518;2023-02-15T15:42:12;101488.38;;;10.88;65.33
65716;BME280;63484;52.054;8.518;2023-02-15T15:47:26;101485.63;;;10.72;66.37
65716;BME280;63484;52.054;8.518;2023-02-15T15:52:35;101480.38;;;10.54;67.33
65716;BME280;63484;52.054;8.518;2023-02-15T15:57:41;101484.75;;;10.36;67.52
65716;BME280;63484;52.054;8.518;2023-02-15T16:02:50;101484.81;;;10.16;68.34
65716;BME280;63484;52.054;8.518;2023-02-15T16:07:52;101479.38;;;10.01;68.78
65716;BME280;63484;52.054;8.518;2023-02-15T16:12:54;101475.78;;;9.83;70.30
65716;BME280;63484;52.054;8.518;2023-02-15T16:17:58;101481.19;;;9.60;70.80
65716;BME280;63484;52.054;8.518;2023-02-15T16:23:12;101475.97;;;9.40;72.32
65716;BME280;63484;52.054;8.518;2023-02-15T16:28:17;101480.88;;;9.27;72.80
65716;BME280;63484;52.054;8.518;2023-02-15T16:33:21;101487.13;;;9.03;74.75
65716;BME280;63484;52.054;8.518;2023-02-15T16:38:45;101485.94;;;8.90;75.52
65716;BME280;63484;52.054;8.518;2023-02-15T16:44:05;101480.16;;;8.61;76.22
65716;BME280;63484;52.054;8.518;2023-02-15T16:49:16;101481.06;;;8.38;77.33
65716;BME280;63484;52.054;8.518;2023-02-15T16:54:21;101474.25;;;8.09;79.10
65716;BME280;63484;52.054;8.518;2023-02-15T16:59:31;101466.06;;;7.95;79.69
65716;BME280;63484;52.054;8.518;2023-02-15T17:04:35;101472.97;;;7.75;79.55
65716;BME280;63484;52.054;8.518;2023-02-15T17:09:48;101486.63;;;7.58;80.79
65716;BME280;63484;52.054;8.518;2023-02-15T17:14:54;101495.94;;;7.42;81.88
65716;BME280;63484;52.054;8.518;2023-02-15T17:19:57;101501.28;;;7.39;82.01
65716;BME280;63484;52.054;8.518;2023-02-15T17:25:00;101495.34;;;7.34;82.28
65716;BME280;63484;52.054;8.518;2023-02-15T17:30:12;101498.94;;;7.30;82.10
65716;BME280;63484;52.054;8.518;2023-02-15T17:35:19;101502.00;;;7.18;82.67
65716;BME280;63484;52.054;8.518;2023-02-15T17:40:24;101501.78;;;6.98;82.89
65716;BME280;63484;52.054;8.518;2023-02-15T17:45:31;101501.38;;;6.84;83.70
65716;BME280;63484;52.054;8.518;2023-02-15T17:50:35;101496.63;;;6.69;84.14
65716;BME280;63484;52.054;8.518;2023-02-15T17:55:36;101501.25;;;6.61;84.11
65716;BME280;63484;52.054;8.518;2023-02-15T18:00:44;101507.66;;;6.51;83.97
65716;BME280;63484;52.054;8.518;2023-02-15T18:06:05;101507.66;;;6.51;83.81
65716;BME280;63484;52.054;8.518;2023-02-15T18:11:24;101494.50;;;6.25;84.50
65716;BME280;63484;52.054;8.518;2023-02-15T18:16:40;101488.22;;;6.03;84.58
65716;BME280;63484;52.054;8.518;2023-02-15T18:21:44;101489.19;;;5.99;85.32
65716;BME280;63484;52.054;8.518;2023-02-15T18:26:46;101498.38;;;6.12;84.29
65716;BME280;63484;52.054;8.518;2023-02-15T18:31:51;101486.16;;;6.14;83.74
65716;BME280;63484;52.054;8.518;2023-02-15T18:36:57;101487.59;;;6.24;82.58
65716;BME280;63484;52.054;8.518;2023-02-15T18:42:00;101484.47;;;6.11;82.71
65716;BME280;63484;52.054;8.518;2023-02-15T18:47:01;101493.44;;;6.03;83.04
65716;BME280;63484;52.054;8.518;2023-02-15T18:52:04;101486.91;;;5.88;83.47
65716;BME280;63484;52.054;8.518;2023-02-15T18:57:09;101485.22;;;5.86;83.56
65716;BME280;63484;52.054;8.518;2023-02-15T19:02:15;101474.88;;;5.83;83.19
65716;BME280;63484;52.054;8.518;2023-02-15T19:07:20;101476.00;;;5.72;83.61
65716;BME280;63484;52.054;8.518;2023-02-15T19:12:22;101488.47;;;5.61;83.98
65716;BME280;63484;52.054;8.518;2023-02-15T19:17:24;101486.03;;;5.55;84.08
65716;BME280;63484;52.054;8.518;2023-02-15T19:22:29;101479.28;;;5.48;84.26
65716;BME280;63484;52.054;8.518;2023-02-15T19:27:32;101486.44;;;5.40;84.31
65716;BME280;63484;52.054;8.518;2023-02-15T19:32:35;101492.88;;;5.27;85.35
65716;BME280;63484;52.054;8.518;2023-02-15T19:37:39;101495.72;;;5.18;85.38
65716;BME280;63484;52.054;8.518;2023-02-15T19:42:42;101504.34;;;5.20;85.98
65716;BME280;63484;52.054;8.518;2023-02-15T19:47:43;101505.44;;;5.12;86.09
65716;BME280;63484;52.054;8.518;2023-02-15T19:52:48;101495.19;;;5.04;86.00
65716;BME280;63484;52.054;8.518;2023-02-15T19:57:51;101498.78;;;5.00;85.86
65716;BME280;63484;52.054;8.518;2023-02-15T20:02:53;101513.75;;;4.92;86.35
65716;BME280;63484;52.054;8.518;2023-02-15T20:07:57;101522.66;;;4.82;87.05
65716;BME280;63484;52.054;8.518;2023-02-15T20:12:59;101524.44;;;4.80;86.78
65716;BME280;63484;52.054;8.518;2023-02-15T20:18:01;101525.50;;;4.73;87.26
65716;BME280;63484;52.054;8.518;2023-02-15T20:23:05;101521.47;;;4.60;87.94
65716;BME280;63484;52.054;8.518;2023-02-15T20:28:14;101526.84;;;4.51;87.94
65716;BME280;63484;52.054;8.518;2023-02-15T20:33:16;101521.78;;;4.45;88.57
65716;BME280;63484;52.054;8.518;2023-02-15T20:38:22;101517.81;;;4.29;88.59
65716;BME280;63484;52.054;8.518;2023-02-15T20:43:24;101518.78;;;4.23;88.60
65716;BME280;63484;52.054;8.518;2023-02-15T20:48:26;101509.34;;;4.19;89.49
65716;BME280;63484;52.054;8.518;2023-02-15T20:53:28;101503.50;;;4.07;89.58
65716;BME280;63484;52.054;8.518;2023-02-15T20:58:30;101509.63;;;4.06;89.38
65716;BME280;63484;52.054;8.518;2023-02-15T21:03:31;101500.22;;;3.99;89.42
65716;BME280;63484;52.054;8.518;2023-02-15T21:08:34;101510.84;;;3.88;89.77
65716;BME280;63484;52.054;8.518;2023-02-15T21:13:35;101517.16;;;3.77;90.40
65716;BME280;63484;52.054;8.518;2023-02-15T21:18:37;101516.44;;;3.69;90.52
65716;BME280;63484;52.054;8.518;2023-02-15T21:23:43;101516.50;;;3.66;91.26
65716;BME280;63484;52.054;8.518;2023-02-15T21:28:45;101513.06;;;3.64;90.45
65716;BME280;63484;52.054;8.518;2023-02-15T21:33:46;101522.81;;;3.53;91.17
65716;BME280;63484;52.054;8.518;2023-02-15T21:38:49;101528.16;;;3.45;90.86
65716;BME280;63484;52.054;8.518;2023-02-15T21:43:52;101530.84;;;3.39;91.51
65716;BME280;63484;52.054;8.518;2023-02-15T21:49:11;101532.75;;;3.30;91.87
65716;BME280;63484;52.054;8.518;2023-02-15T21:54:16;101536.31;;;3.24;91.67
65716;BME280;63484;52.054;8.518;2023-02-15T21:59:18;101538.16;;;3.18;91.97
65716;BME280;63484;52.054;8.518;2023-02-15T22:04:23;101535.66;;;3.10;92.42
65716;BME280;63484;52.054;8.518;2023-02-15T22:09:26;101527.91;;;3.09;92.59
65716;BME280;63484;52.054;8.518;2023-02-15T22:14:34;101533.22;;;3.01;93.10
65716;BME280;63484;52.054;8.518;2023-02-15T22:19:37;101532.41;;;2.98;92.87
65716;BME280;63484;52.054;8.518;2023-02-15T22:24:40;101525.53;;;2.97;93.33
65716;BME280;63484;52.054;8.518;2023-02-15T22:29:42;101526.44;;;2.93;93.11
65716;BME280;63484;52.054;8.518;2023-02-15T22:34:43;101534.34;;;2.85;93.10
65716;BME280;63484;52.054;8.518;2023-02-15T22:39:46;101533.56;;;2.80;93.33
65716;BME280;63484;52.054;8.518;2023-02-15T22:44:48;101529.25;;;2.77;93.51
65716;BME280;63484;52.054;8.518;2023-02-15T22:49:50;101529.38;;;2.70;93.60
65716;BME280;63484;52.054;8.518;2023-02-15T22:54:52;101534.66;;;2.64;93.53
65716;BME280;63484;52.054;8.518;2023-02-15T22:59:54;101532.09;;;2.62;93.90
65716;BME280;63484;52.054;8.518;2023-02-15T23:04:56;101534.84;;;2.50;93.80
65716;BME280;63484;52.054;8.518;2023-02-15T23:09:58;101532.41;;;2.40;94.15
65716;BME280;63484;52.054;8.518;2023-02-15T23:15:00;101532.53;;;2.29;94.42
65716;BME280;63484;52.054;8.518;2023-02-15T23:20:01;101541.31;;;2.19;94.53
65716;BME280;63484;52.054;8.518;2023-02-15T23:25:08;101523.28;;;2.12;95.10
65716;BME280;63484;52.054;8.518;2023-02-15T23:30:13;101522.44;;;2.08;95.28
65716;BME280;63484;52.054;8.518;2023-02-15T23:35:16;101519.13;;;1.97;95.52
65716;BME280;63484;52.054;8.518;2023-02-15T23:40:20;101521.81;;;1.88;95.98
65716;BME280;63484;52.054;8.518;2023-02-15T23:45:39;101526.22;;;1.83;96.46
65716;BME280;63484;52.054;8.518;2023-02-15T23:50:41;101519.38;;;1.76;96.34
65716;BME280;63484;52.054;8.518;2023-02-15T23:55:44;101521.03;;;1.80;96.77
